createdAt,value
2023-05-05T00:01:45.408Z,16.97
2023-05-05T00:04:12.524Z,16.96
2023-05-05T00:06:40.148Z,16.94
2023-05-05T00:09:07.092Z,16.94
2023-05-05T00:11:37.011Z,16.93
2023-05-05T00:14:05.901Z,16.89
2023-05-05T00:16:33.108Z,16.96
2023-05-05T00:19:03.419Z,16.79
2023-05-05T00:21:31.853Z,16.77
2023-05-05T00:23:58.931Z,16.83
2023-05-05T00:26:30.469Z,16.80
2023-05-05T00:29:01.022Z,16.80
2023-05-05T00:31:29.636Z,16.80
2023-05-05T00:33:58.159Z,16.79
2023-05-05T00:36:25.232Z,16.82
2023-05-05T00:38:57.200Z,16.89
2023-05-05T00:41:24.335Z,16.94
2023-05-05T00:43:54.542Z,16.94
2023-05-05T00:46:28.542Z,16.96
2023-05-05T00:48:58.209Z,16.97
2023-05-05T00:51:25.937Z,16.94
2023-05-05T00:53:56.322Z,16.97
2023-05-05T00:56:23.982Z,16.94
2023-05-05T00:58:51.866Z,16.93
2023-05-05T01:01:19.276Z,16.90
2023-05-05T01:03:50.164Z,16.85
2023-05-05T01:06:41.994Z,16.77
2023-05-05T01:09:28.696Z,16.75
2023-05-05T01:12:08.115Z,16.69
2023-05-05T01:14:40.223Z,16.65
2023-05-05T01:17:17.212Z,16.65
2023-05-05T01:20:16.603Z,16.52
2023-05-05T01:22:53.142Z,16.52
2023-05-05T01:26:06.965Z,16.53
2023-05-05T01:29:07.012Z,16.61
2023-05-05T01:31:48.282Z,16.52
2023-05-05T01:34:20.765Z,16.47
2023-05-05T01:36:58.341Z,16.53
2023-05-05T01:39:33.246Z,16.45
2023-05-05T01:42:08.583Z,16.48
2023-05-05T01:44:38.303Z,16.47
2023-05-05T01:47:10.350Z,16.52
2023-05-05T01:49:43.151Z,16.49
2023-05-05T01:52:11.824Z,16.38
2023-05-05T01:54:40.920Z,16.45
2023-05-05T01:57:11.400Z,16.55
2023-05-05T01:59:39.743Z,16.40
2023-05-05T02:02:13.602Z,16.49
2023-05-05T02:04:44.345Z,16.51
2023-05-05T02:07:17.189Z,16.49
2023-05-05T02:09:45.719Z,16.51
2023-05-05T02:12:13.419Z,16.48
2023-05-05T02:14:44.077Z,16.41
2023-05-05T02:17:25.327Z,16.44
2023-05-05T02:20:02.074Z,16.42
2023-05-05T02:22:33.603Z,16.38
2023-05-05T02:25:10.621Z,16.35
2023-05-05T02:27:43.874Z,16.24
2023-05-05T02:30:16.974Z,16.14
2023-05-05T02:32:56.577Z,16.10
2023-05-05T02:35:38.391Z,16.10
2023-05-05T02:38:16.586Z,16.18
2023-05-05T02:40:49.897Z,16.05
2023-05-05T02:43:22.418Z,16.10
2023-05-05T02:45:55.848Z,16.20
2023-05-05T02:48:28.555Z,16.18
2023-05-05T02:51:02.877Z,16.24
2023-05-05T02:53:35.453Z,16.24
2023-05-05T02:56:17.663Z,16.26
2023-05-05T02:59:04.276Z,16.15
2023-05-05T03:01:46.484Z,16.14
2023-05-05T03:04:23.196Z,16.25
2023-05-05T03:06:59.533Z,16.11
2023-05-05T03:09:39.743Z,16.15
2023-05-05T03:12:10.854Z,16.10
2023-05-05T03:15:01.722Z,15.94
2023-05-05T03:17:33.967Z,15.76
2023-05-05T03:20:05.431Z,15.81
2023-05-05T03:22:39.829Z,15.90
2023-05-05T03:25:20.571Z,15.87
2023-05-05T03:27:57.138Z,15.86
2023-05-05T03:30:24.836Z,15.87
2023-05-05T03:32:55.717Z,15.81
2023-05-05T03:35:27.278Z,15.83
2023-05-05T03:37:56.869Z,15.81
2023-05-05T03:40:40.360Z,15.70
2023-05-05T03:43:12.136Z,15.56
2023-05-05T03:45:39.409Z,15.66
2023-05-05T03:48:08.480Z,15.76
2023-05-05T03:50:39.812Z,15.80
2023-05-05T03:53:12.231Z,15.80
2023-05-05T03:55:42.162Z,15.83
2023-05-05T03:58:09.166Z,15.71
2023-05-05T04:00:44.810Z,15.77
2023-05-05T04:03:23.191Z,15.79
2023-05-05T04:05:54.616Z,15.80
2023-05-05T04:08:24.698Z,15.77
2023-05-05T04:10:51.873Z,15.74
2023-05-05T04:13:21.672Z,15.77
2023-05-05T04:15:49.133Z,15.64
2023-05-05T04:18:56.775Z,15.73
2023-05-05T04:21:28.279Z,15.71
2023-05-05T04:23:56.361Z,15.77
2023-05-05T04:26:23.672Z,15.84
2023-05-05T04:28:53.461Z,15.81
2023-05-05T04:31:20.757Z,15.84
2023-05-05T04:33:50.402Z,15.80
2023-05-05T04:36:17.877Z,15.84
2023-05-05T04:38:49.871Z,15.73
2023-05-05T04:43:58.588Z,15.79
2023-05-05T04:46:29.764Z,15.83
2023-05-05T04:49:00.998Z,15.80
2023-05-05T04:51:28.265Z,15.69
2023-05-05T04:54:00.578Z,15.87
2023-05-05T04:56:30.624Z,15.81
2023-05-05T04:58:57.715Z,15.84
2023-05-05T05:01:25.659Z,15.80
2023-05-05T05:03:53.399Z,15.86
2023-05-05T05:06:22.316Z,15.89
2023-05-05T05:08:50.028Z,16.05
2023-05-05T05:11:18.384Z,16.07
2023-05-05T05:13:45.298Z,16.18
2023-05-05T05:16:14.682Z,16.07
2023-05-05T05:19:09.106Z,16.12
2023-05-05T05:21:36.471Z,16.24
2023-05-05T05:24:04.622Z,16.34
2023-05-05T05:26:33.107Z,16.41
2023-05-05T05:31:56.115Z,16.45
2023-05-05T05:38:39.434Z,16.75
2023-05-05T05:41:33.860Z,17.04
2023-05-05T05:44:01.454Z,17.06
2023-05-05T05:46:33.312Z,17.23
2023-05-05T05:49:05.984Z,17.20
2023-05-05T05:51:33.930Z,17.22
2023-05-05T05:54:01.707Z,17.36
2023-05-05T05:56:29.653Z,17.36
2023-05-05T05:58:58.686Z,17.54
2023-05-05T06:01:25.834Z,17.43
2023-05-05T06:03:53.976Z,17.51
2023-05-05T06:06:21.750Z,17.20
2023-05-05T06:08:48.679Z,17.19
2023-05-05T06:11:15.684Z,17.23
2023-05-05T06:13:42.752Z,17.34
2023-05-05T06:19:06.894Z,17.23
2023-05-05T06:21:34.056Z,17.45
2023-05-05T06:24:01.028Z,17.51
2023-05-05T06:26:32.281Z,17.37
2023-05-05T06:28:59.438Z,17.50
2023-05-05T06:31:27.738Z,17.55
2023-05-05T06:34:06.175Z,17.53
2023-05-05T06:36:37.014Z,17.57
2023-05-05T06:39:04.360Z,17.74
2023-05-05T06:41:31.263Z,17.92
2023-05-05T06:43:58.405Z,18.01
2023-05-05T06:46:32.341Z,18.32
2023-05-05T06:49:08.967Z,18.56
2023-05-05T06:51:41.543Z,18.90
2023-05-05T06:54:09.900Z,19.08
2023-05-05T06:56:42.580Z,19.41
2023-05-05T06:59:12.352Z,19.55
2023-05-05T07:01:43.454Z,19.70
2023-05-05T07:04:10.977Z,19.83
2023-05-05T07:06:37.917Z,19.90
2023-05-05T07:09:04.873Z,20.17
2023-05-05T07:11:31.925Z,20.33
2023-05-05T07:14:00.858Z,20.58
2023-05-05T07:16:28.354Z,20.80
2023-05-05T07:18:56.713Z,20.64
2023-05-05T07:21:28.295Z,20.95
2023-05-05T07:23:55.509Z,21.15
2023-05-05T07:26:25.530Z,21.35
2023-05-05T07:29:09.304Z,21.59
2023-05-05T07:31:36.546Z,21.89
2023-05-05T07:34:07.456Z,22.08
2023-05-05T07:36:34.481Z,22.07
2023-05-05T07:39:01.409Z,22.18
2023-05-05T07:41:28.819Z,22.00
2023-05-05T07:43:55.756Z,22.07
2023-05-05T07:46:22.809Z,22.15
2023-05-05T07:48:49.844Z,22.25
2023-05-05T07:51:18.323Z,22.64
2023-05-05T07:53:45.503Z,22.83
2023-05-05T07:56:12.480Z,22.64
2023-05-05T07:58:39.944Z,22.47
2023-05-05T08:01:07.104Z,22.40
2023-05-05T08:03:34.385Z,22.45
2023-05-05T08:06:07.737Z,22.37
2023-05-05T08:08:36.549Z,22.24
2023-05-05T08:11:04.324Z,22.35
2023-05-05T08:13:31.602Z,22.51
2023-05-05T08:15:58.734Z,22.83
2023-05-05T08:18:25.888Z,22.86
2023-05-05T08:20:53.013Z,23.00
2023-05-05T08:23:20.085Z,23.05
2023-05-05T08:25:48.611Z,23.28
2023-05-05T08:28:15.733Z,23.43
2023-05-05T08:30:42.983Z,23.49
2023-05-05T08:33:10.187Z,23.75
2023-05-05T08:35:39.067Z,24.19
2023-05-05T08:38:08.923Z,24.14
2023-05-05T08:40:38.741Z,24.25
2023-05-05T08:43:07.579Z,24.28
2023-05-05T08:45:34.708Z,24.04
2023-05-05T08:48:04.610Z,24.07
2023-05-05T08:50:33.014Z,24.21
2023-05-05T08:53:11.306Z,24.43
2023-05-05T08:55:47.812Z,24.77
2023-05-05T08:58:18.661Z,25.26
2023-05-05T09:00:46.455Z,25.47
2023-05-05T09:03:15.026Z,25.77
2023-05-05T09:05:43.334Z,25.85
2023-05-05T09:08:11.511Z,25.99
2023-05-05T09:10:41.084Z,25.96
2023-05-05T09:13:08.367Z,26.00
2023-05-05T09:15:36.779Z,25.99
2023-05-05T09:18:07.301Z,26.37
2023-05-05T09:20:37.349Z,26.47
2023-05-05T09:23:09.766Z,26.43
2023-05-05T09:25:37.275Z,26.32
2023-05-05T09:28:12.162Z,26.15
2023-05-05T09:30:50.939Z,26.23
2023-05-05T09:33:29.972Z,26.71
2023-05-05T09:35:58.335Z,27.11
2023-05-05T09:38:25.666Z,27.24
2023-05-05T09:40:54.064Z,27.25
2023-05-05T09:43:23.126Z,27.53
2023-05-05T09:45:51.607Z,27.78
2023-05-05T09:48:26.373Z,27.93
2023-05-05T09:50:54.024Z,27.85
2023-05-05T09:53:21.579Z,27.63
2023-05-05T09:55:56.395Z,27.55
2023-05-05T09:58:25.819Z,27.48
2023-05-05T10:00:55.344Z,27.30
2023-05-05T10:03:26.928Z,27.37
2023-05-05T10:05:55.095Z,27.31
2023-05-05T10:08:25.432Z,27.58
2023-05-05T10:10:55.391Z,27.67
2023-05-05T10:13:24.815Z,27.76
2023-05-05T10:15:56.012Z,27.45
2023-05-05T10:18:25.383Z,27.01
2023-05-05T10:20:57.916Z,26.47
2023-05-05T10:23:35.732Z,26.09
2023-05-05T10:26:08.254Z,25.68
2023-05-05T10:28:43.770Z,25.26
2023-05-05T10:31:25.898Z,24.90
2023-05-05T10:34:00.480Z,24.40
2023-05-05T10:36:29.131Z,24.19
2023-05-05T10:38:56.809Z,24.00
2023-05-05T10:41:31.624Z,23.95
2023-05-05T10:44:01.397Z,23.70
2023-05-05T10:46:32.197Z,23.64
2023-05-05T10:49:13.102Z,23.42
2023-05-05T10:51:52.675Z,23.37
2023-05-05T10:57:31.231Z,23.16
2023-05-05T11:01:29.211Z,23.07
2023-05-05T11:04:20.057Z,23.22
2023-05-05T11:07:24.491Z,23.28
2023-05-05T11:13:20.482Z,23.64
2023-05-05T11:15:50.979Z,23.44
2023-05-05T11:18:37.534Z,23.67
2023-05-05T11:21:14.690Z,23.61
2023-05-05T11:23:43.888Z,23.64
2023-05-05T11:26:12.165Z,23.81
2023-05-05T11:29:01.080Z,23.94
2023-05-05T11:31:29.504Z,24.32
2023-05-05T11:34:34.270Z,25.13
2023-05-05T11:37:07.580Z,25.64
2023-05-05T11:39:55.618Z,25.78
2023-05-05T11:42:26.750Z,25.74
2023-05-05T11:44:54.974Z,25.67
2023-05-05T11:47:32.687Z,25.84
2023-05-05T11:50:20.896Z,25.79
2023-05-05T11:52:49.672Z,25.99
2023-05-05T11:55:21.379Z,26.08
2023-05-05T11:57:48.417Z,26.15
2023-05-05T12:00:17.103Z,25.90
2023-05-05T12:02:59.707Z,25.92
2023-05-05T12:05:26.929Z,25.69
2023-05-05T12:07:58.773Z,25.75
2023-05-05T12:10:26.239Z,25.33
2023-05-05T12:12:56.023Z,25.13
2023-05-05T12:15:32.151Z,24.94
2023-05-05T12:18:02.115Z,24.80
2023-05-05T12:20:32.146Z,24.69
2023-05-05T12:23:04.562Z,24.96
2023-05-05T12:25:39.667Z,25.14
2023-05-05T12:28:09.316Z,25.13
2023-05-05T12:30:36.741Z,25.28
2023-05-05T12:33:06.037Z,25.40
2023-05-05T12:35:33.898Z,25.34
2023-05-05T12:38:05.407Z,25.28
2023-05-05T12:40:57.574Z,25.06
2023-05-05T12:43:35.308Z,24.91
2023-05-05T12:53:21.194Z,24.08
2023-05-05T12:55:48.474Z,23.75
2023-05-05T12:58:15.396Z,23.36
2023-05-05T13:00:42.431Z,23.28
2023-05-05T13:03:19.183Z,23.19
2023-05-05T13:05:46.699Z,23.03
2023-05-05T13:08:15.162Z,22.91
2023-05-05T13:10:56.697Z,22.83
2023-05-05T13:13:29.346Z,22.86
2023-05-05T13:15:58.985Z,22.91
2023-05-05T13:18:26.226Z,22.75
2023-05-05T13:20:53.490Z,22.99
2023-05-05T13:23:22.728Z,23.12
2023-05-05T13:25:50.677Z,23.00
2023-05-05T13:28:18.052Z,22.96
2023-05-05T13:30:45.281Z,22.92
2023-05-05T13:33:12.523Z,23.09
2023-05-05T13:35:39.536Z,23.09
2023-05-05T13:38:06.922Z,23.17
2023-05-05T13:40:35.453Z,23.36
2023-05-05T13:43:02.508Z,23.22
2023-05-05T13:45:29.610Z,23.23
2023-05-05T13:47:56.626Z,23.22
2023-05-05T13:50:23.890Z,23.06
2023-05-05T13:52:50.936Z,23.09
2023-05-05T13:55:18.283Z,23.07
2023-05-05T13:57:46.748Z,23.16
2023-05-05T14:00:15.934Z,23.07
2023-05-05T14:02:42.947Z,23.10
2023-05-05T14:05:10.721Z,23.23
2023-05-05T14:07:37.941Z,23.26
2023-05-05T14:10:10.243Z,23.22
2023-05-05T14:12:37.757Z,23.27
2023-05-05T14:15:08.165Z,23.19
2023-05-05T14:17:35.535Z,23.12
2023-05-05T14:20:03.040Z,22.81
2023-05-05T14:22:32.650Z,22.71
2023-05-05T14:24:59.873Z,22.49
2023-05-05T14:27:26.958Z,22.41
2023-05-05T14:29:54.528Z,22.28
2023-05-05T14:32:23.014Z,22.27
2023-05-05T14:34:51.011Z,22.24
2023-05-05T14:37:18.320Z,22.34
2023-05-05T14:39:51.630Z,22.22
2023-05-05T14:42:18.665Z,22.27
2023-05-05T14:44:45.943Z,22.04
2023-05-05T14:47:13.087Z,22.03
2023-05-05T14:49:41.780Z,22.05
2023-05-05T14:52:08.822Z,22.03
2023-05-05T14:54:36.176Z,21.92
2023-05-05T14:57:03.461Z,21.74
2023-05-05T14:59:31.048Z,21.76
2023-05-05T15:01:58.422Z,21.76
2023-05-05T15:04:25.478Z,21.72
2023-05-05T15:06:54.171Z,21.80
2023-05-05T15:09:21.116Z,21.56
2023-05-05T15:11:48.254Z,21.62
2023-05-05T15:14:15.166Z,21.69
2023-05-05T15:16:42.542Z,21.70
2023-05-05T15:19:09.703Z,21.77
2023-05-05T15:21:36.825Z,21.76
2023-05-05T15:24:06.677Z,21.84
2023-05-05T15:26:33.622Z,21.86
2023-05-05T15:29:00.764Z,21.76
2023-05-05T15:31:27.818Z,21.56
2023-05-05T15:33:56.403Z,21.66
2023-05-05T15:36:23.453Z,21.60
2023-05-05T15:38:50.417Z,21.32
2023-05-05T15:41:19.618Z,21.42
2023-05-05T15:43:46.649Z,21.54
2023-05-05T15:46:13.765Z,21.53
2023-05-05T15:48:40.992Z,21.67
2023-05-05T15:51:07.929Z,21.67
2023-05-05T15:53:34.895Z,21.83
2023-05-05T15:56:02.344Z,21.74
2023-05-05T15:58:30.943Z,21.82
2023-05-05T16:00:58.045Z,21.93
2023-05-05T16:03:25.518Z,21.98
2023-05-05T16:05:52.578Z,21.93
2023-05-05T16:08:19.631Z,22.10
2023-05-05T16:10:46.810Z,22.18
2023-05-05T16:13:13.976Z,22.24
2023-05-05T16:15:42.518Z,22.21
2023-05-05T16:18:09.721Z,22.01
2023-05-05T16:20:36.916Z,21.96
2023-05-05T16:23:03.927Z,21.89
2023-05-05T16:25:31.125Z,21.87
2023-05-05T16:27:58.137Z,21.54
2023-05-05T16:30:25.681Z,21.56
2023-05-05T16:32:54.191Z,21.52
2023-05-05T16:35:26.428Z,21.52
2023-05-05T16:37:53.384Z,21.49
2023-05-05T16:40:21.362Z,21.46
2023-05-05T16:42:48.563Z,21.31
2023-05-05T16:45:15.894Z,21.15
2023-05-05T16:47:42.905Z,21.11
2023-05-05T16:50:11.944Z,21.01
2023-05-05T16:52:38.902Z,20.94
2023-05-05T16:55:06.538Z,20.82
2023-05-05T16:57:33.683Z,20.77
2023-05-05T17:00:00.633Z,20.70
2023-05-05T17:02:27.964Z,20.63
2023-05-05T17:05:21.517Z,20.47
2023-05-05T17:07:48.654Z,20.45
2023-05-05T17:10:16.322Z,20.39
2023-05-05T17:12:43.765Z,20.37
2023-05-05T17:15:11.587Z,20.34
2023-05-05T17:17:41.551Z,20.21
2023-05-05T17:20:11.477Z,20.10
2023-05-05T17:22:42.267Z,19.97
2023-05-05T17:25:12.714Z,19.93
2023-05-05T17:27:43.264Z,19.82
2023-05-05T17:33:07.466Z,19.57
2023-05-05T17:35:34.827Z,19.49
2023-05-05T17:38:03.229Z,19.19
2023-05-05T17:40:32.078Z,19.17
2023-05-05T17:42:59.196Z,19.12
2023-05-05T17:45:29.116Z,19.06
2023-05-05T17:47:56.874Z,18.90
2023-05-05T17:50:24.105Z,18.84
2023-05-05T17:52:51.426Z,18.61
2023-05-05T17:55:20.574Z,18.63
2023-05-05T17:57:48.011Z,18.46
2023-05-05T18:00:19.276Z,18.55
2023-05-05T18:02:47.255Z,18.42
2023-05-05T18:05:14.728Z,18.37
2023-05-05T18:07:42.597Z,18.43
2023-05-05T18:10:10.466Z,18.26
2023-05-05T18:12:39.021Z,18.10
2023-05-05T18:15:11.994Z,18.02
2023-05-05T18:17:39.407Z,17.91
2023-05-05T18:20:11.270Z,17.85
2023-05-05T18:22:41.051Z,17.96
2023-05-05T18:25:09.730Z,17.86
2023-05-05T18:27:39.802Z,17.94
2023-05-05T18:30:08.634Z,17.92
2023-05-05T18:32:37.355Z,17.91
2023-05-05T18:35:05.977Z,17.55
2023-05-05T18:37:33.742Z,17.65
2023-05-05T18:40:04.793Z,17.68
2023-05-05T18:42:33.295Z,17.78
2023-05-05T18:45:02.106Z,17.75
2023-05-05T18:47:30.803Z,17.61
2023-05-05T18:49:59.114Z,17.57
2023-05-05T18:52:26.608Z,17.65
2023-05-05T18:54:54.232Z,17.60
2023-05-05T18:57:21.507Z,17.36
2023-05-05T18:59:52.553Z,17.31
2023-05-05T19:02:21.621Z,17.17
2023-05-05T19:04:48.799Z,17.22
2023-05-05T19:07:31.384Z,17.19
2023-05-05T19:10:03.413Z,17.12
2023-05-05T19:12:30.740Z,16.93
2023-05-05T19:15:00.461Z,16.96
2023-05-05T19:17:29.197Z,16.90
2023-05-05T19:19:58.997Z,16.90
2023-05-05T19:22:26.645Z,16.83
2023-05-05T19:24:53.912Z,16.61
2023-05-05T19:27:24.263Z,16.61
2023-05-05T19:29:53.812Z,16.42
2023-05-05T19:32:24.900Z,16.47
2023-05-05T19:34:53.859Z,16.38
2023-05-05T19:37:21.478Z,16.41
2023-05-05T19:39:51.789Z,16.41
2023-05-05T19:42:19.927Z,16.40
2023-05-05T19:44:47.124Z,16.42
2023-05-05T19:47:14.882Z,16.28
2023-05-05T19:49:42.146Z,16.36
2023-05-05T19:52:10.738Z,16.41
2023-05-05T19:54:42.872Z,16.42
2023-05-05T19:57:10.035Z,16.34
2023-05-05T19:59:37.525Z,16.28
2023-05-05T20:02:05.302Z,16.20
2023-05-05T20:04:33.170Z,16.21
2023-05-05T20:07:00.521Z,16.20
2023-05-05T20:09:29.229Z,16.01
2023-05-05T20:11:59.208Z,16.02
2023-05-05T20:14:26.466Z,15.93
2023-05-05T20:16:56.890Z,16.02
2023-05-05T20:19:24.757Z,16.05
2023-05-05T20:21:51.910Z,16.08
2023-05-05T20:24:25.826Z,15.94
2023-05-05T20:26:54.931Z,15.84
2023-05-05T20:29:22.525Z,15.84
2023-05-05T20:31:50.396Z,15.79
2023-05-05T20:34:17.579Z,15.69
2023-05-05T20:36:44.895Z,15.66
2023-05-05T20:39:15.633Z,15.67
2023-05-05T20:41:42.972Z,15.66
2023-05-05T20:44:12.823Z,15.60
2023-05-05T20:46:41.819Z,15.61
2023-05-05T20:49:09.040Z,15.57
2023-05-05T20:51:36.088Z,15.54
2023-05-05T20:54:03.864Z,15.54
2023-05-05T20:56:31.497Z,15.56
2023-05-05T20:59:27.211Z,15.44
2023-05-05T21:01:57.020Z,15.42
2023-05-05T21:04:24.445Z,15.30
2023-05-05T21:06:54.119Z,15.30
2023-05-05T21:09:21.376Z,15.30
2023-05-05T21:11:50.232Z,15.29
2023-05-05T21:14:17.247Z,15.35
2023-05-05T21:16:45.668Z,15.20
2023-05-05T21:19:13.435Z,15.05
2023-05-05T21:21:40.547Z,15.16
2023-05-05T21:24:08.500Z,15.22
2023-05-05T21:26:35.664Z,15.23
2023-05-05T21:29:04.319Z,15.15
2023-05-05T21:31:31.846Z,15.12
2023-05-05T21:34:00.587Z,14.91
2023-05-05T21:36:27.860Z,14.88
2023-05-05T21:38:55.044Z,14.74
2023-05-05T21:41:22.426Z,14.95
2023-05-05T21:43:52.549Z,14.98
2023-05-05T21:46:19.987Z,14.92
2023-05-05T21:48:47.683Z,14.98
2023-05-05T21:51:20.465Z,15.09
2023-05-05T21:53:47.572Z,15.08
2023-05-05T21:56:22.216Z,15.05
2023-05-05T21:58:51.623Z,14.74
2023-05-05T22:01:30.385Z,14.78
2023-05-05T22:03:58.081Z,14.87
2023-05-05T22:06:29.576Z,14.88
2023-05-05T22:08:59.171Z,15.05
2023-05-05T22:11:26.584Z,14.96
2023-05-05T22:13:56.997Z,15.01
2023-05-05T22:16:32.278Z,15.08
2023-05-05T22:18:59.489Z,15.08
2023-05-05T22:21:27.862Z,14.99
2023-05-05T22:23:55.459Z,14.93
2023-05-05T22:26:22.398Z,14.78
2023-05-05T22:28:49.781Z,14.93
2023-05-05T22:31:16.943Z,15.05
2023-05-05T22:33:46.409Z,15.08
2023-05-05T22:36:16.602Z,15.16
2023-05-05T22:38:44.952Z,15.03
2023-05-05T22:44:03.708Z,15.18
2023-05-05T22:46:30.849Z,15.19
2023-05-05T22:49:00.392Z,15.30
2023-05-05T22:51:54.192Z,15.20
2023-05-05T22:54:22.820Z,15.22
2023-05-05T22:56:50.430Z,15.11
2023-05-05T22:59:17.450Z,15.09
2023-05-05T23:01:44.307Z,15.15
2023-05-05T23:04:15.489Z,15.09
2023-05-05T23:06:42.727Z,15.06
2023-05-05T23:09:09.829Z,14.98
2023-05-05T23:11:40.608Z,14.88
2023-05-05T23:14:07.492Z,14.89
2023-05-05T23:16:35.589Z,14.84
2023-05-05T23:19:02.870Z,14.89
2023-05-05T23:21:32.081Z,14.82
2023-05-05T23:24:01.753Z,14.88
2023-05-05T23:26:28.654Z,14.89
2023-05-05T23:28:56.976Z,14.88
2023-05-05T23:31:24.509Z,14.75
2023-05-05T23:33:51.625Z,14.85
2023-05-05T23:36:19.147Z,14.81
2023-05-05T23:38:48.569Z,14.84
2023-05-05T23:41:15.534Z,14.82
2023-05-05T23:43:42.677Z,14.84
2023-05-05T23:46:11.472Z,14.82
2023-05-05T23:48:38.564Z,14.78
2023-05-05T23:51:05.578Z,14.74
2023-05-05T23:53:32.651Z,14.65
2023-05-05T23:55:59.757Z,14.74
2023-05-05T23:58:27.038Z,14.79
